This is the latest recevied weather packets stored in our database for station/object KE2GQQ. If no packets are shown the sender has not sent any weather packets the latest 10 day(s).
| Time | Temp. | Humidity | Pressure | Rain* | Wind** | Luminosity | Snow |
|---|---|---|---|---|---|---|---|
| 1777440916 | 11.11° C | 69% | 1018.1 hPa | 0 mm | - | 0 W/m² | - |
| 1777438517 | 11.11° C | 68% | 1018.8 hPa | 0 mm | - | 0 W/m² | - |
| 1777437918 | 11.11° C | 68% | 1019.1 hPa | 0 mm | - | 0 W/m² | - |
| 1777437318 | 11.11° C | 68% | 1019 hPa | 0 mm | - | 0 W/m² | - |
| 1777435518 | 11.11° C | 68% | 1018.6 hPa | 0 mm | - | 0 W/m² | - |
| 1777432516 | 11.11° C | 68% | 1018.6 hPa | 0 mm | - | 0 W/m² | - |
| 1777431916 | 11.11° C | 68% | 1018.3 hPa | 0 mm | - | 0 W/m² | - |
| 1777430717 | 11.67° C | 65% | 1018.2 hPa | 0 mm | - | 0 W/m² | - |
| 1777428917 | 11.67° C | 63% | 1018.2 hPa | 0 mm | - | 0 W/m² | - |
| 1777425916 | 12.22° C | 64% | 1018.4 hPa | 0 mm | - | 0 W/m² | - |
| 1777425316 | 12.78° C | 65% | 1018.5 hPa | 0 mm | - | 0 W/m² | - |
| 1777419316 | 15° C | 53% | 1018.1 hPa | 0 mm | - | 4 W/m² | - |
| 1777415118 | 15.56° C | 51% | 1018.3 hPa | 0 mm | - | 40 W/m² | - |
| 1777410319 | 16.67° C | 50% | 1018.5 hPa | 0 mm | - | 54 W/m² | - |
| 1777409719 | 16.67° C | 49% | 1018.6 hPa | 0 mm | - | 71 W/m² | - |
| 1777395317 | 18.33° C | 45% | 1020.8 hPa | 0 mm | - | 263 W/m² | - |
| 1777394736 | 18.33° C | 46% | 1020.9 hPa | 0 mm | - | 250 W/m² | - |
| 1777391117 | 17.78° C | 47% | 1021.4 hPa | 0 mm | - | 276 W/m² | - |
| 1777390518 | 17.78° C | 47% | 1021.5 hPa | 0 mm | - | 262 W/m² | - |
| 1777386316 | 17.22° C | 55% | 1021.6 hPa | 0 mm | - | 327 W/m² | - |
| 1777384516 | 17.78° C | 49% | 1021.8 hPa | 0 mm | - | 417 W/m² | - |
| 1777382117 | 16.67° C | 51% | 1021.8 hPa | 0 mm | - | 559 W/m² | - |
| 1777379717 | 13.89° C | 64% | 1021.9 hPa | 0 mm | - | 427 W/m² | - |
| 1777379118 | 12.78° C | 69% | 1022 hPa | 0 mm | - | 386 W/m² | - |
| 1777376718 | 7.78° C | 93% | 1022.1 hPa | 0 mm | - | 65 W/m² | - |
* Rain latest hour (hover to see other rain measurements)
** Current wind speed in m/s (hover to see current wind gust speed)